createdAt,value
2022-07-31T00:00:46.434Z,20.71
2022-07-31T00:01:59.925Z,20.73
2022-07-31T00:03:09.523Z,20.69
2022-07-31T00:04:15.678Z,20.68
2022-07-31T00:05:19.671Z,20.64
2022-07-31T00:06:23.756Z,20.64
2022-07-31T00:07:27.848Z,20.63
2022-07-31T00:08:31.935Z,20.63
2022-07-31T00:09:52.878Z,20.57
2022-07-31T00:10:57.965Z,20.60
2022-07-31T00:12:01.659Z,20.61
2022-07-31T00:13:05.667Z,20.63
2022-07-31T00:14:10.655Z,20.62
2022-07-31T00:15:15.328Z,20.57
2022-07-31T00:16:19.303Z,20.57
2022-07-31T00:17:23.239Z,20.52
2022-07-31T00:18:26.976Z,20.54
2022-07-31T00:19:30.899Z,20.62
2022-07-31T00:20:34.944Z,20.60
2022-07-31T00:21:38.799Z,20.57
2022-07-31T00:22:44.612Z,20.62
2022-07-31T00:23:48.527Z,20.59
2022-07-31T00:24:52.272Z,20.54
2022-07-31T00:25:56.782Z,20.60
2022-07-31T00:27:01.500Z,20.60
2022-07-31T00:28:07.363Z,20.66
2022-07-31T00:29:11.300Z,20.61
2022-07-31T00:30:19.993Z,20.64
2022-07-31T00:31:24.548Z,20.64
2022-07-31T00:32:28.404Z,20.65
2022-07-31T00:33:32.162Z,20.61
2022-07-31T00:34:35.907Z,20.67
2022-07-31T00:35:39.743Z,20.65
2022-07-31T00:36:43.805Z,20.60
2022-07-31T00:37:47.585Z,20.57
2022-07-31T00:38:51.587Z,20.42
2022-07-31T00:39:55.476Z,20.51
2022-07-31T00:40:59.485Z,20.43
2022-07-31T00:42:03.441Z,20.53
2022-07-31T00:43:07.283Z,20.57
2022-07-31T00:44:15.032Z,20.51
2022-07-31T00:45:19.026Z,20.51
2022-07-31T00:46:32.926Z,20.55
2022-07-31T00:47:39.308Z,20.47
2022-07-31T00:48:43.288Z,20.56
2022-07-31T00:49:48.041Z,20.57
2022-07-31T00:50:51.895Z,20.58
2022-07-31T00:51:55.726Z,20.55
2022-07-31T00:52:59.531Z,20.55
2022-07-31T00:54:03.442Z,20.55
2022-07-31T00:55:08.317Z,20.58
2022-07-31T00:56:12.242Z,20.53
2022-07-31T00:57:16.211Z,20.57
2022-07-31T00:58:21.261Z,20.59
2022-07-31T00:59:25.179Z,20.61
2022-07-31T01:00:29.167Z,20.60
2022-07-31T01:01:33.644Z,20.61
2022-07-31T01:02:38.548Z,20.60
2022-07-31T01:03:51.109Z,20.56
2022-07-31T01:04:54.906Z,20.58
2022-07-31T01:05:58.690Z,20.57
2022-07-31T01:07:02.798Z,20.58
2022-07-31T01:08:06.984Z,20.54
2022-07-31T01:09:10.975Z,20.47
2022-07-31T01:10:31.076Z,20.43
2022-07-31T01:11:50.075Z,20.42
2022-07-31T01:13:05.718Z,20.47
2022-07-31T01:14:13.210Z,20.45
2022-07-31T01:15:19.299Z,20.39
2022-07-31T01:16:29.261Z,20.32
2022-07-31T01:17:35.723Z,20.44
2022-07-31T01:18:42.678Z,20.48
2022-07-31T01:19:50.099Z,20.49
2022-07-31T01:21:00.537Z,20.49
2022-07-31T01:22:50.298Z,20.52
2022-07-31T01:24:32.031Z,20.51
2022-07-31T01:26:02.297Z,20.54
2022-07-31T01:27:49.456Z,20.51
2022-07-31T01:28:59.367Z,20.53
2022-07-31T01:30:05.755Z,20.50
2022-07-31T01:31:27.879Z,20.46
2022-07-31T01:32:49.648Z,20.43
2022-07-31T01:34:10.904Z,20.38
2022-07-31T01:35:31.117Z,20.41
2022-07-31T01:36:42.278Z,20.44
2022-07-31T01:38:04.805Z,20.44
2022-07-31T01:39:08.795Z,20.41
2022-07-31T01:40:17.332Z,20.45
2022-07-31T01:41:30.833Z,20.47
2022-07-31T01:42:41.092Z,20.48
2022-07-31T01:43:49.483Z,20.49
2022-07-31T01:45:00.749Z,20.41
2022-07-31T01:46:07.223Z,20.52
2022-07-31T01:47:17.228Z,20.48
2022-07-31T01:48:22.811Z,20.45
2022-07-31T01:49:28.785Z,20.48
2022-07-31T01:50:42.315Z,20.39
2022-07-31T01:51:48.897Z,20.47
2022-07-31T01:52:54.680Z,20.45
2022-07-31T01:54:00.527Z,20.47
2022-07-31T01:55:09.550Z,20.48
2022-07-31T01:56:18.140Z,20.51
2022-07-31T01:57:26.084Z,20.49
2022-07-31T01:58:35.453Z,20.48
2022-07-31T01:59:44.763Z,20.51
2022-07-31T02:00:54.428Z,20.53
2022-07-31T02:02:01.341Z,20.53
2022-07-31T02:03:09.912Z,20.48
2022-07-31T02:04:16.701Z,20.51
2022-07-31T02:05:21.965Z,20.49
2022-07-31T02:06:27.518Z,20.49
2022-07-31T02:07:31.770Z,20.52
2022-07-31T02:08:37.291Z,20.52
2022-07-31T02:09:52.278Z,20.51
2022-07-31T02:11:03.579Z,20.52
2022-07-31T02:12:12.260Z,20.49
2022-07-31T02:13:18.059Z,20.52
2022-07-31T02:14:24.506Z,20.48
2022-07-31T02:15:31.121Z,20.51
2022-07-31T02:16:37.936Z,20.51
2022-07-31T02:17:46.776Z,20.52
2022-07-31T02:18:54.150Z,20.50
2022-07-31T02:20:02.107Z,20.47
2022-07-31T02:21:06.106Z,20.45
2022-07-31T02:22:09.910Z,20.54
2022-07-31T02:23:14.264Z,20.51
2022-07-31T02:24:18.291Z,20.53
2022-07-31T02:25:22.214Z,20.52
2022-07-31T02:26:30.535Z,20.54
2022-07-31T02:27:54.381Z,20.51
2022-07-31T02:29:02.839Z,20.57
2022-07-31T02:30:08.039Z,20.54
2022-07-31T02:31:17.092Z,20.51
2022-07-31T02:32:23.421Z,20.54
2022-07-31T02:33:29.577Z,20.45
2022-07-31T02:34:36.408Z,20.56
2022-07-31T02:35:45.773Z,20.54
2022-07-31T02:36:53.728Z,20.54
2022-07-31T02:37:58.762Z,20.54
2022-07-31T02:39:03.995Z,20.55
2022-07-31T02:40:11.963Z,20.53
2022-07-31T02:41:17.556Z,20.51
2022-07-31T02:42:23.081Z,20.45
2022-07-31T02:43:28.843Z,20.50
2022-07-31T02:44:35.028Z,20.51
2022-07-31T02:45:40.820Z,20.49
2022-07-31T02:46:45.717Z,20.52
2022-07-31T02:47:51.073Z,20.52
2022-07-31T02:48:57.055Z,20.52
2022-07-31T02:50:02.526Z,20.49
2022-07-31T02:51:07.187Z,20.49
2022-07-31T02:52:13.348Z,20.46
2022-07-31T02:53:17.450Z,20.46
2022-07-31T02:54:21.604Z,20.43
2022-07-31T02:55:26.780Z,20.44
2022-07-31T02:56:33.293Z,20.43
2022-07-31T02:57:37.325Z,20.46
2022-07-31T02:58:42.949Z,20.46
2022-07-31T02:59:46.664Z,20.45
2022-07-31T03:01:04.918Z,20.37
2022-07-31T03:02:09.169Z,20.39
2022-07-31T03:03:12.905Z,20.47
2022-07-31T03:04:16.552Z,20.50
2022-07-31T03:05:21.767Z,20.48
2022-07-31T03:06:25.571Z,20.47
2022-07-31T03:07:29.397Z,20.47
2022-07-31T03:08:33.276Z,20.44
2022-07-31T03:09:38.140Z,20.47
2022-07-31T03:10:42.484Z,20.46
2022-07-31T03:11:47.068Z,20.49
2022-07-31T03:12:54.546Z,20.45
2022-07-31T03:14:02.186Z,20.46
2022-07-31T03:15:16.647Z,20.43
2022-07-31T03:16:23.900Z,20.38
2022-07-31T03:17:38.170Z,20.41
2022-07-31T03:18:46.327Z,20.51
2022-07-31T03:19:52.817Z,20.49
2022-07-31T03:20:57.679Z,20.51
2022-07-31T03:22:02.883Z,20.51
2022-07-31T03:23:07.255Z,20.50
2022-07-31T03:24:12.193Z,20.47
2022-07-31T03:25:21.934Z,20.49
2022-07-31T03:26:26.732Z,20.47
2022-07-31T03:27:30.950Z,20.42
2022-07-31T03:28:36.160Z,20.42
2022-07-31T03:29:43.674Z,20.44
2022-07-31T03:30:56.092Z,20.45
2022-07-31T03:32:01.496Z,20.45
2022-07-31T03:33:06.898Z,20.45
2022-07-31T03:34:12.166Z,20.26
2022-07-31T03:35:16.349Z,20.19
2022-07-31T03:36:20.248Z,20.45
2022-07-31T03:37:24.213Z,20.44
2022-07-31T03:38:38.534Z,20.41
2022-07-31T03:39:46.300Z,20.44
2022-07-31T03:40:50.190Z,20.43
2022-07-31T03:41:56.881Z,20.42
2022-07-31T03:43:03.594Z,20.42
2022-07-31T03:44:09.294Z,20.39
2022-07-31T03:45:17.737Z,20.39
2022-07-31T03:46:24.916Z,20.38
2022-07-31T03:47:29.350Z,20.39
2022-07-31T03:48:33.846Z,20.41
2022-07-31T03:49:39.051Z,20.42
2022-07-31T03:50:45.329Z,20.40
2022-07-31T03:51:49.424Z,20.31
2022-07-31T03:52:53.652Z,20.44
2022-07-31T03:53:57.543Z,20.36
2022-07-31T03:55:01.949Z,20.45
2022-07-31T03:56:07.831Z,20.46
2022-07-31T03:57:12.505Z,20.48
2022-07-31T03:58:19.379Z,20.49
2022-07-31T03:59:27.593Z,20.46
2022-07-31T04:00:34.949Z,20.32
2022-07-31T04:01:58.212Z,20.43
2022-07-31T04:03:08.792Z,20.45
2022-07-31T04:04:13.781Z,20.43
2022-07-31T04:05:17.676Z,20.41
2022-07-31T04:06:21.490Z,20.50
2022-07-31T04:07:25.728Z,20.51
2022-07-31T04:08:29.871Z,20.50
2022-07-31T04:09:33.895Z,20.43
2022-07-31T04:10:38.486Z,20.51
2022-07-31T04:11:42.707Z,20.52
2022-07-31T04:12:46.700Z,20.49
2022-07-31T04:13:52.550Z,20.51
2022-07-31T04:14:56.464Z,20.52
2022-07-31T04:16:00.205Z,20.54
2022-07-31T04:17:04.070Z,20.56
2022-07-31T04:18:07.820Z,20.57
2022-07-31T04:19:11.525Z,20.58
2022-07-31T04:20:15.737Z,20.58
2022-07-31T04:21:19.620Z,20.62
2022-07-31T04:22:23.386Z,20.62
2022-07-31T04:23:32.554Z,20.63
2022-07-31T04:24:36.646Z,20.64
2022-07-31T04:25:40.548Z,20.60
2022-07-31T04:26:45.669Z,20.61
2022-07-31T04:27:50.419Z,20.63
2022-07-31T04:28:54.311Z,20.56
2022-07-31T04:29:58.511Z,20.63
2022-07-31T04:31:02.190Z,20.64
2022-07-31T04:32:06.603Z,20.68
2022-07-31T04:33:10.506Z,20.70
2022-07-31T04:34:14.533Z,20.68
2022-07-31T04:35:18.678Z,20.67
2022-07-31T04:36:29.597Z,20.60
2022-07-31T04:37:34.914Z,20.69
2022-07-31T04:38:38.578Z,20.69
2022-07-31T04:39:42.808Z,20.71
2022-07-31T04:40:46.492Z,20.72
2022-07-31T04:41:51.904Z,20.68
2022-07-31T04:42:56.438Z,20.69
2022-07-31T04:44:00.242Z,20.65
2022-07-31T04:45:04.652Z,20.67
2022-07-31T04:46:17.352Z,20.68
2022-07-31T04:47:21.884Z,20.71
2022-07-31T04:48:25.622Z,20.70
2022-07-31T04:49:31.091Z,20.65
2022-07-31T04:50:36.839Z,20.63
2022-07-31T04:51:42.556Z,20.63
2022-07-31T04:52:47.122Z,20.69
2022-07-31T04:53:52.400Z,20.69
2022-07-31T04:54:56.020Z,20.58
2022-07-31T04:56:18.149Z,20.66
2022-07-31T04:57:22.341Z,20.66
2022-07-31T04:58:26.679Z,20.53
2022-07-31T04:59:59.150Z,20.64
2022-07-31T05:00:54.397Z,20.65
2022-07-31T05:01:58.271Z,20.64
2022-07-31T05:03:02.076Z,20.49
2022-07-31T05:04:08.361Z,20.55
2022-07-31T05:05:12.142Z,20.54
2022-07-31T05:06:16.009Z,20.47
2022-07-31T05:07:20.071Z,20.57
2022-07-31T05:08:23.689Z,20.57
2022-07-31T05:09:33.320Z,20.55
2022-07-31T05:10:58.639Z,20.62
2022-07-31T05:12:03.070Z,20.54
2022-07-31T05:13:07.087Z,20.60
2022-07-31T05:14:14.107Z,20.61
2022-07-31T05:15:18.603Z,20.61
2022-07-31T05:16:24.093Z,20.63
2022-07-31T05:17:28.035Z,20.61
2022-07-31T05:18:33.070Z,20.56
2022-07-31T05:19:37.026Z,20.57
2022-07-31T05:20:40.745Z,20.57
2022-07-31T05:21:53.133Z,20.56
2022-07-31T05:22:58.501Z,20.56
2022-07-31T05:24:04.703Z,20.53
2022-07-31T05:26:45.713Z,20.58
2022-07-31T05:27:50.144Z,20.53
2022-07-31T05:28:58.428Z,20.46
2022-07-31T05:30:02.657Z,20.49
2022-07-31T05:31:08.690Z,20.45
2022-07-31T05:32:12.653Z,20.40
2022-07-31T05:33:16.684Z,20.38
2022-07-31T05:34:20.485Z,20.32
2022-07-31T05:35:24.107Z,20.32
2022-07-31T05:36:28.244Z,20.28
2022-07-31T05:37:34.005Z,20.24
2022-07-31T05:38:38.031Z,20.21
2022-07-31T05:39:41.754Z,20.22
2022-07-31T05:40:45.516Z,20.14
2022-07-31T05:41:51.138Z,20.20
2022-07-31T05:42:55.568Z,20.21
2022-07-31T05:43:59.595Z,20.20
2022-07-31T05:45:03.415Z,20.20
2022-07-31T05:46:07.665Z,20.22
2022-07-31T05:47:11.501Z,20.23
2022-07-31T05:48:18.503Z,20.22
2022-07-31T05:49:22.532Z,20.23
2022-07-31T05:50:26.433Z,20.25
2022-07-31T05:51:31.207Z,20.18
2022-07-31T05:52:35.003Z,20.25
2022-07-31T05:53:40.500Z,20.23
2022-07-31T05:54:48.010Z,20.27
2022-07-31T05:55:52.149Z,20.16
2022-07-31T05:56:56.661Z,20.27
2022-07-31T05:58:01.038Z,20.30
2022-07-31T05:59:04.843Z,20.25
2022-07-31T06:00:10.049Z,20.29
2022-07-31T06:01:15.257Z,20.29
2022-07-31T06:02:19.226Z,20.30
2022-07-31T06:03:25.532Z,20.27
2022-07-31T06:04:29.585Z,20.32
2022-07-31T06:05:34.579Z,20.30
2022-07-31T06:06:38.502Z,20.30
2022-07-31T06:07:47.204Z,20.31
2022-07-31T06:08:55.642Z,20.33
2022-07-31T06:10:00.844Z,20.33
2022-07-31T06:11:04.962Z,20.29
2022-07-31T06:12:09.384Z,20.23
2022-07-31T06:13:14.980Z,20.27
2022-07-31T06:14:19.291Z,20.22
2022-07-31T06:15:23.476Z,20.21
2022-07-31T06:16:27.372Z,20.26
2022-07-31T06:17:44.682Z,20.28
2022-07-31T06:18:48.687Z,20.31
2022-07-31T06:19:52.925Z,20.31
2022-07-31T06:20:56.905Z,20.15
2022-07-31T06:22:00.890Z,20.31
2022-07-31T06:23:22.496Z,20.30
2022-07-31T06:24:27.212Z,20.30
2022-07-31T06:25:38.738Z,20.31
2022-07-31T06:26:42.706Z,20.23
2022-07-31T06:27:55.149Z,20.27
2022-07-31T06:29:04.636Z,20.25
2022-07-31T06:30:10.027Z,20.22
2022-07-31T06:31:23.395Z,20.26
2022-07-31T06:32:27.267Z,20.26
2022-07-31T06:33:37.746Z,20.29
2022-07-31T06:34:43.215Z,20.27
2022-07-31T06:35:46.925Z,20.25
2022-07-31T06:36:51.414Z,20.26
2022-07-31T06:37:55.239Z,20.26
2022-07-31T06:38:58.986Z,20.32
2022-07-31T06:40:04.445Z,20.34
2022-07-31T06:41:08.505Z,20.29
2022-07-31T06:42:19.573Z,20.27
2022-07-31T06:43:23.521Z,20.32
2022-07-31T06:44:27.722Z,20.32
2022-07-31T06:45:50.814Z,20.35
2022-07-31T06:46:55.493Z,20.37
2022-07-31T06:47:59.336Z,20.35
2022-07-31T06:49:06.883Z,20.38
2022-07-31T06:50:12.983Z,20.35
2022-07-31T06:51:32.627Z,20.39
2022-07-31T06:52:36.956Z,20.42
2022-07-31T06:53:40.688Z,20.38
2022-07-31T06:54:45.360Z,20.37
2022-07-31T06:55:49.061Z,20.40
2022-07-31T06:56:53.182Z,20.38
2022-07-31T06:57:57.674Z,20.37
2022-07-31T06:59:02.530Z,20.36
2022-07-31T07:00:15.223Z,20.33
2022-07-31T07:01:24.504Z,20.35
2022-07-31T07:02:28.411Z,20.34
2022-07-31T07:03:32.865Z,20.33
2022-07-31T07:05:04.372Z,20.30
2022-07-31T07:06:03.584Z,20.33
2022-07-31T07:07:07.433Z,20.30
2022-07-31T07:08:11.155Z,20.31
2022-07-31T07:09:15.029Z,20.30
2022-07-31T07:10:18.957Z,20.29
2022-07-31T07:11:22.865Z,20.30
2022-07-31T07:12:27.093Z,20.22
2022-07-31T07:13:44.903Z,20.26
2022-07-31T07:14:49.396Z,20.25
2022-07-31T07:15:53.943Z,20.22
2022-07-31T07:16:57.639Z,20.18
2022-07-31T07:18:01.472Z,20.19
2022-07-31T07:19:05.581Z,20.21
2022-07-31T07:20:10.139Z,20.18
2022-07-31T07:21:14.120Z,20.17
2022-07-31T07:22:18.098Z,20.19
2022-07-31T07:23:35.039Z,20.19
2022-07-31T07:24:39.162Z,20.18
2022-07-31T07:25:43.214Z,20.24
2022-07-31T07:26:47.016Z,20.24
2022-07-31T07:27:50.847Z,20.24
2022-07-31T07:28:54.600Z,20.22
2022-07-31T07:29:59.915Z,20.23
2022-07-31T07:31:05.600Z,20.24
2022-07-31T07:32:10.157Z,20.15
2022-07-31T07:33:14.221Z,20.18
2022-07-31T07:34:38.038Z,20.21
2022-07-31T07:35:42.981Z,20.11
2022-07-31T07:36:46.777Z,20.14
2022-07-31T07:37:50.698Z,20.16
2022-07-31T07:38:55.932Z,20.15
2022-07-31T07:40:03.676Z,20.13
2022-07-31T07:41:07.951Z,20.16
2022-07-31T07:42:11.797Z,20.16
2022-07-31T07:43:15.920Z,20.14
2022-07-31T07:44:19.719Z,20.07
2022-07-31T07:45:24.547Z,20.06
2022-07-31T07:46:28.563Z,20.08
2022-07-31T07:47:53.750Z,19.98
2022-07-31T07:48:56.142Z,20.02
2022-07-31T07:50:00.678Z,20.01
2022-07-31T07:51:04.582Z,20.02
2022-07-31T07:52:08.487Z,20.06
2022-07-31T07:53:13.504Z,20.05
2022-07-31T07:54:17.437Z,20.00
2022-07-31T07:55:21.331Z,20.05
2022-07-31T07:56:25.278Z,20.05
2022-07-31T07:57:29.896Z,20.02
2022-07-31T07:58:33.752Z,20.06
2022-07-31T07:59:37.615Z,19.93
2022-07-31T08:00:41.597Z,19.88
2022-07-31T08:01:45.485Z,19.98
2022-07-31T08:03:02.814Z,19.91
2022-07-31T08:04:13.768Z,19.99
2022-07-31T08:05:17.887Z,20.01
2022-07-31T08:06:23.556Z,20.02
2022-07-31T08:07:42.782Z,19.99
2022-07-31T08:08:46.903Z,20.03
2022-07-31T08:09:50.575Z,20.05
2022-07-31T08:10:54.776Z,20.06
2022-07-31T08:11:59.489Z,20.02
2022-07-31T08:13:03.617Z,19.90
2022-07-31T08:14:07.613Z,20.05
2022-07-31T08:15:12.921Z,20.06
2022-07-31T08:16:16.988Z,20.07
2022-07-31T08:17:21.382Z,20.02
2022-07-31T08:18:27.246Z,20.09
2022-07-31T08:19:32.299Z,20.11
2022-07-31T08:20:38.880Z,20.13
2022-07-31T08:21:42.868Z,20.15
2022-07-31T08:22:47.028Z,20.14
2022-07-31T08:23:52.886Z,20.15
2022-07-31T08:24:57.337Z,20.15
2022-07-31T08:26:01.129Z,20.15
2022-07-31T08:27:39.578Z,20.09
2022-07-31T08:28:49.894Z,20.17
2022-07-31T08:30:00.972Z,20.14
2022-07-31T08:31:05.499Z,20.10
2022-07-31T08:32:09.350Z,19.97
2022-07-31T08:33:13.359Z,19.98
2022-07-31T08:34:31.013Z,19.97
2022-07-31T08:35:35.911Z,19.97
2022-07-31T08:36:42.374Z,19.98
2022-07-31T08:37:52.613Z,19.87
2022-07-31T08:39:08.281Z,19.97
2022-07-31T08:40:22.121Z,19.99
2022-07-31T08:41:26.350Z,19.96
2022-07-31T08:42:30.420Z,19.94
2022-07-31T08:44:01.472Z,19.94
2022-07-31T08:44:58.128Z,19.95
2022-07-31T08:46:03.324Z,19.92
2022-07-31T08:47:15.307Z,19.91
2022-07-31T08:48:25.484Z,19.87
2022-07-31T08:49:33.631Z,19.81
2022-07-31T08:50:40.589Z,19.85
2022-07-31T08:51:51.699Z,19.85
2022-07-31T08:53:00.294Z,19.87
2022-07-31T08:54:10.930Z,19.87
2022-07-31T08:55:24.877Z,19.85
2022-07-31T08:56:40.656Z,19.88
2022-07-31T08:57:51.059Z,19.77
2022-07-31T08:58:57.366Z,19.77
2022-07-31T09:00:01.466Z,19.86
2022-07-31T09:01:06.256Z,19.87
2022-07-31T09:02:15.629Z,19.86
2022-07-31T09:03:20.409Z,19.89
2022-07-31T09:04:26.012Z,19.86
2022-07-31T09:05:41.816Z,19.86
2022-07-31T09:06:46.879Z,19.86
2022-07-31T09:07:50.773Z,19.86
2022-07-31T09:08:57.243Z,19.82
2022-07-31T09:10:01.757Z,19.82
2022-07-31T09:11:15.461Z,19.83
2022-07-31T09:12:34.839Z,19.85
2022-07-31T09:13:39.297Z,19.88
2022-07-31T09:14:49.699Z,19.88
2022-07-31T09:15:59.423Z,19.87
2022-07-31T09:17:07.680Z,19.89
2022-07-31T09:18:22.427Z,19.88
2022-07-31T09:19:54.133Z,19.92
2022-07-31T09:21:05.930Z,19.92
2022-07-31T09:22:31.436Z,19.91
2022-07-31T09:23:48.502Z,19.92
2022-07-31T09:24:53.340Z,19.91
2022-07-31T09:26:06.212Z,19.91
2022-07-31T09:27:10.775Z,19.91
2022-07-31T09:28:14.789Z,19.93
2022-07-31T09:29:18.517Z,19.95
2022-07-31T09:30:22.379Z,19.99
2022-07-31T09:31:33.872Z,20.00
2022-07-31T09:32:37.512Z,20.00
2022-07-31T09:33:47.084Z,20.01
2022-07-31T09:34:50.811Z,20.02
2022-07-31T09:35:55.084Z,20.03
2022-07-31T09:37:16.527Z,20.05
2022-07-31T09:38:21.292Z,20.07
2022-07-31T09:39:27.158Z,20.06
2022-07-31T09:40:37.545Z,20.06
2022-07-31T09:42:01.733Z,20.12
2022-07-31T09:43:25.659Z,20.15
2022-07-31T09:44:41.707Z,20.08
2022-07-31T09:45:49.195Z,20.14
2022-07-31T09:46:52.996Z,20.11
2022-07-31T09:48:12.582Z,20.11
2022-07-31T09:49:17.714Z,20.05
2022-07-31T09:50:24.745Z,20.07
2022-07-31T09:51:42.511Z,20.11
2022-07-31T09:52:46.242Z,20.06
2022-07-31T09:53:56.738Z,20.15
2022-07-31T09:55:15.780Z,20.18
2022-07-31T09:56:35.328Z,20.19
2022-07-31T09:57:54.696Z,20.15
2022-07-31T09:58:59.506Z,20.13
2022-07-31T10:00:06.637Z,20.09
2022-07-31T10:01:13.311Z,20.07
2022-07-31T10:02:20.678Z,20.02
2022-07-31T10:03:26.969Z,20.04
2022-07-31T10:04:31.390Z,20.07
2022-07-31T10:05:38.335Z,19.97
2022-07-31T10:06:43.892Z,20.10
2022-07-31T10:07:49.373Z,20.09
2022-07-31T10:08:55.733Z,20.07
2022-07-31T10:10:01.133Z,20.01
2022-07-31T10:11:16.406Z,20.02
2022-07-31T10:12:22.233Z,19.93
2022-07-31T10:13:26.511Z,20.03
2022-07-31T10:14:40.213Z,20.00
2022-07-31T10:15:48.803Z,20.04
2022-07-31T10:16:59.205Z,20.01
2022-07-31T10:18:05.885Z,20.05
2022-07-31T10:19:14.202Z,20.06
2022-07-31T10:20:23.699Z,20.07
2022-07-31T10:21:42.028Z,20.04
2022-07-31T10:23:09.392Z,20.09
2022-07-31T10:24:13.218Z,20.09
2022-07-31T10:25:28.929Z,20.08
2022-07-31T10:26:57.718Z,20.04
2022-07-31T10:27:58.486Z,20.07
2022-07-31T10:29:03.692Z,20.08
2022-07-31T10:30:09.123Z,20.07
2022-07-31T10:31:15.010Z,20.08
2022-07-31T10:32:19.675Z,20.08
2022-07-31T10:33:42.972Z,20.09
2022-07-31T10:34:48.871Z,20.08
2022-07-31T10:36:20.046Z,20.09
2022-07-31T10:37:43.485Z,20.15
2022-07-31T10:39:08.476Z,20.14
2022-07-31T10:40:24.838Z,20.06
2022-07-31T10:41:46.669Z,19.99
2022-07-31T10:43:03.309Z,20.10
2022-07-31T10:44:28.068Z,20.10
2022-07-31T10:45:32.078Z,20.15
2022-07-31T10:46:36.342Z,20.13
2022-07-31T10:47:48.045Z,20.08
2022-07-31T10:48:54.354Z,20.04
2022-07-31T10:49:58.671Z,20.03
2022-07-31T10:51:12.866Z,20.00
2022-07-31T10:52:33.686Z,19.97
2022-07-31T10:53:51.665Z,19.96
2022-07-31T10:55:02.215Z,20.01
2022-07-31T10:56:13.767Z,20.01
2022-07-31T10:57:26.967Z,20.01
2022-07-31T10:58:31.176Z,20.03
2022-07-31T10:59:35.299Z,20.04
2022-07-31T11:00:40.666Z,20.02
2022-07-31T11:01:55.277Z,20.04
2022-07-31T11:02:59.147Z,20.06
2022-07-31T11:04:04.992Z,19.95
2022-07-31T11:05:16.571Z,20.01
2022-07-31T11:06:21.778Z,20.02
2022-07-31T11:07:25.978Z,20.03
2022-07-31T11:08:47.924Z,20.00
2022-07-31T11:09:53.222Z,20.03
2022-07-31T11:11:03.477Z,20.02
2022-07-31T11:12:21.409Z,20.02
2022-07-31T11:13:36.878Z,19.96
2022-07-31T11:14:41.039Z,19.97
2022-07-31T11:15:44.779Z,19.94
2022-07-31T11:16:53.083Z,19.98
2022-07-31T11:18:21.159Z,20.00
2022-07-31T11:19:21.618Z,20.00
2022-07-31T11:20:30.009Z,19.99
2022-07-31T11:21:41.916Z,20.02
2022-07-31T11:23:03.472Z,20.05
2022-07-31T11:24:22.332Z,20.05
2022-07-31T11:25:30.297Z,20.03
2022-07-31T11:26:41.253Z,20.09
2022-07-31T11:27:46.742Z,20.07
2022-07-31T11:28:50.710Z,20.06
2022-07-31T11:29:58.579Z,20.07
2022-07-31T11:31:09.985Z,19.99
2022-07-31T11:32:16.256Z,20.04
2022-07-31T11:33:47.538Z,20.06
2022-07-31T11:34:55.355Z,20.05
2022-07-31T11:36:30.094Z,20.02
2022-07-31T11:37:56.398Z,20.05
2022-07-31T11:38:57.899Z,20.05
2022-07-31T11:40:03.800Z,20.04
2022-07-31T11:41:10.143Z,20.02
2022-07-31T11:42:15.912Z,20.00
2022-07-31T11:43:27.449Z,20.00
2022-07-31T11:44:31.282Z,19.93
2022-07-31T11:45:53.431Z,19.94
2022-07-31T11:46:58.494Z,19.98
2022-07-31T11:48:11.465Z,19.90
2022-07-31T11:49:23.748Z,19.92
2022-07-31T11:50:49.863Z,20.03
2022-07-31T11:52:02.020Z,20.07
2022-07-31T11:53:07.287Z,20.03
2022-07-31T11:54:11.293Z,20.06
2022-07-31T11:55:16.865Z,20.07
2022-07-31T11:56:21.868Z,20.10
2022-07-31T11:57:52.363Z,20.07
2022-07-31T11:58:58.630Z,20.01
2022-07-31T12:00:29.369Z,20.04
2022-07-31T12:01:34.042Z,19.95
2022-07-31T12:02:44.610Z,19.94
2022-07-31T12:03:50.905Z,19.98
2022-07-31T12:04:54.903Z,19.94
2022-07-31T12:05:59.501Z,19.95
2022-07-31T12:07:09.604Z,19.87
2022-07-31T12:08:14.809Z,19.88
2022-07-31T12:10:00.465Z,19.91
2022-07-31T12:10:43.557Z,19.90
2022-07-31T12:11:47.326Z,19.92
2022-07-31T12:12:51.350Z,19.85
2022-07-31T12:13:55.473Z,19.96
2022-07-31T12:14:59.404Z,19.99
2022-07-31T12:16:11.434Z,19.90
2022-07-31T12:17:22.944Z,19.99
2022-07-31T12:18:29.273Z,20.00
2022-07-31T12:19:37.421Z,20.04
2022-07-31T12:21:03.494Z,20.02
2022-07-31T12:22:15.073Z,20.02
2022-07-31T12:23:41.010Z,20.00
2022-07-31T12:24:45.150Z,20.04
2022-07-31T12:25:49.576Z,20.04
2022-07-31T12:27:00.870Z,19.96
2022-07-31T12:28:05.090Z,20.02
2022-07-31T12:29:12.161Z,19.97
2022-07-31T12:30:18.405Z,20.06
2022-07-31T12:31:22.335Z,19.98
2022-07-31T12:32:27.865Z,20.10
2022-07-31T12:33:42.775Z,20.10
2022-07-31T12:34:46.666Z,20.12
2022-07-31T12:35:55.771Z,20.01
2022-07-31T12:37:16.187Z,20.09
2022-07-31T12:38:47.640Z,20.07
2022-07-31T12:40:00.103Z,20.13
2022-07-31T12:41:05.858Z,20.13
2022-07-31T12:42:09.721Z,20.16
2022-07-31T12:43:13.711Z,20.16
2022-07-31T12:44:21.564Z,20.18
2022-07-31T12:45:31.116Z,20.24
2022-07-31T12:46:39.676Z,20.29
2022-07-31T12:47:43.883Z,20.32
2022-07-31T12:48:48.134Z,20.31
2022-07-31T12:49:52.972Z,20.35
2022-07-31T12:50:57.431Z,20.32
2022-07-31T12:52:01.238Z,20.38
2022-07-31T12:53:05.487Z,20.36
2022-07-31T12:54:10.290Z,20.36
2022-07-31T12:55:17.202Z,20.35
2022-07-31T12:56:21.523Z,20.26
2022-07-31T12:57:25.970Z,20.38
2022-07-31T12:58:29.914Z,20.37
2022-07-31T12:59:33.875Z,20.37
2022-07-31T13:00:40.197Z,20.33
2022-07-31T13:01:44.626Z,20.21
2022-07-31T13:02:49.285Z,20.22
2022-07-31T13:03:53.100Z,20.21
2022-07-31T13:04:57.884Z,20.20
2022-07-31T13:06:01.801Z,20.18
2022-07-31T13:07:06.699Z,20.12
2022-07-31T13:08:10.614Z,20.11
2022-07-31T13:09:14.665Z,20.01
2022-07-31T13:10:23.945Z,20.07
2022-07-31T13:11:46.629Z,20.13
2022-07-31T13:12:53.168Z,20.11
2022-07-31T13:13:58.189Z,20.11
2022-07-31T13:15:02.357Z,20.10
2022-07-31T13:16:07.412Z,20.12
2022-07-31T13:17:11.615Z,20.03
2022-07-31T13:18:15.731Z,20.16
2022-07-31T13:19:20.323Z,20.15
2022-07-31T13:20:24.425Z,20.17
2022-07-31T13:21:28.334Z,20.17
2022-07-31T13:22:52.192Z,20.08
2022-07-31T13:24:00.101Z,20.17
2022-07-31T13:25:05.847Z,20.13
2022-07-31T13:26:09.629Z,20.05
2022-07-31T13:27:13.657Z,19.99
2022-07-31T13:28:17.580Z,20.09
2022-07-31T13:29:21.440Z,20.02
2022-07-31T13:30:25.826Z,19.97
2022-07-31T13:31:30.031Z,19.99
2022-07-31T13:32:33.882Z,19.99
2022-07-31T13:33:38.135Z,19.90
2022-07-31T13:34:42.143Z,19.94
2022-07-31T13:35:46.083Z,19.92
2022-07-31T13:36:49.936Z,19.88
2022-07-31T13:37:54.260Z,19.93
2022-07-31T13:38:58.555Z,19.96
2022-07-31T13:40:03.206Z,19.97
2022-07-31T13:41:24.289Z,19.99
2022-07-31T13:42:29.462Z,20.00
2022-07-31T13:43:34.039Z,19.87
2022-07-31T13:44:38.549Z,19.98
2022-07-31T13:45:42.528Z,19.98
2022-07-31T13:46:46.894Z,20.01
2022-07-31T13:47:52.896Z,20.00
2022-07-31T13:49:01.030Z,19.98
2022-07-31T13:50:06.928Z,19.98
2022-07-31T13:51:10.908Z,19.97
2022-07-31T13:52:14.834Z,19.97
2022-07-31T13:53:18.681Z,19.93
2022-07-31T13:54:23.285Z,19.98
2022-07-31T13:55:27.422Z,20.00
2022-07-31T13:56:40.950Z,19.99
2022-07-31T13:57:47.017Z,20.00
2022-07-31T13:58:52.371Z,20.00
2022-07-31T13:59:56.305Z,19.92
2022-07-31T14:01:04.398Z,19.95
2022-07-31T14:02:08.794Z,19.92
2022-07-31T14:03:15.276Z,19.91
2022-07-31T14:04:23.397Z,19.82
2022-07-31T14:05:28.312Z,19.84
2022-07-31T14:06:32.718Z,19.86
2022-07-31T14:07:45.106Z,19.96
2022-07-31T14:08:50.678Z,19.95
2022-07-31T14:09:55.423Z,19.95
2022-07-31T14:11:00.054Z,19.98
2022-07-31T14:12:05.618Z,19.95
2022-07-31T14:13:09.970Z,19.91
2022-07-31T14:14:13.830Z,19.98
2022-07-31T14:15:28.588Z,19.96
2022-07-31T14:16:34.152Z,19.98
2022-07-31T14:17:38.074Z,19.96
2022-07-31T14:18:42.845Z,19.99
2022-07-31T14:19:46.743Z,19.97
2022-07-31T14:20:51.598Z,20.00
2022-07-31T14:21:56.774Z,19.99
2022-07-31T14:23:05.023Z,20.00
2022-07-31T14:24:09.586Z,19.98
2022-07-31T14:25:13.974Z,19.99
2022-07-31T14:26:18.713Z,20.00
2022-07-31T14:27:22.532Z,20.01
2022-07-31T14:28:27.762Z,20.03
2022-07-31T14:29:31.715Z,19.95
2022-07-31T14:30:46.436Z,20.03
2022-07-31T14:31:53.489Z,20.03
2022-07-31T14:32:57.686Z,20.02
2022-07-31T14:34:01.653Z,20.02